createdAt,value
2022-11-19T00:01:05.529Z,62.76
2022-11-19T00:06:10.482Z,62.75
2022-11-19T00:11:14.921Z,62.87
2022-11-19T00:16:19.022Z,63.07
2022-11-19T00:21:21.810Z,62.92
2022-11-19T00:26:25.467Z,62.99
2022-11-19T00:31:29.777Z,63.19
2022-11-19T00:36:32.522Z,63.17
2022-11-19T00:41:35.252Z,63.16
2022-11-19T00:46:39.392Z,63.23
2022-11-19T00:51:42.151Z,63.14
2022-11-19T00:56:44.990Z,63.58
2022-11-19T01:01:49.304Z,63.34
2022-11-19T01:06:52.117Z,63.44
2022-11-19T01:11:54.891Z,63.41
2022-11-19T01:16:58.979Z,63.48
2022-11-19T01:22:01.686Z,63.39
2022-11-19T01:27:04.683Z,63.56
2022-11-19T01:32:08.816Z,63.59
2022-11-19T01:37:11.543Z,63.65
2022-11-19T01:42:41.773Z,63.66
2022-11-19T01:47:46.696Z,63.62
2022-11-19T01:52:50.011Z,63.79
2022-11-19T01:57:57.333Z,63.98
2022-11-19T02:03:01.493Z,64.01
2022-11-19T02:08:08.695Z,64.01
2022-11-19T02:13:21.229Z,64.27
2022-11-19T02:18:38.820Z,64.42
2022-11-19T02:23:56.869Z,64.62
2022-11-19T02:29:10.852Z,64.67
2022-11-19T02:34:18.628Z,64.96
2022-11-19T02:39:27.060Z,65.12
2022-11-19T02:44:52.541Z,65.15
2022-11-19T02:50:02.816Z,65.30
2022-11-19T02:55:06.511Z,65.42
2022-11-19T03:00:28.097Z,65.58
2022-11-19T03:05:36.692Z,65.69
2022-11-19T03:10:49.207Z,65.90
2022-11-19T03:16:12.872Z,66.01
2022-11-19T03:21:23.826Z,66.20
2022-11-19T03:26:32.810Z,66.61
2022-11-19T03:31:37.317Z,66.76
2022-11-19T03:36:43.760Z,66.85
2022-11-19T03:41:49.805Z,67.13
2022-11-19T03:46:58.321Z,67.14
2022-11-19T03:52:07.256Z,67.42
2022-11-19T03:57:13.204Z,67.53
2022-11-19T04:02:17.224Z,67.66
2022-11-19T04:07:23.931Z,67.79
2022-11-19T04:12:26.846Z,68.20
2022-11-19T04:17:29.607Z,68.29
2022-11-19T04:22:33.767Z,68.45
2022-11-19T04:27:36.560Z,68.85
2022-11-19T04:32:39.295Z,68.68
2022-11-19T04:37:43.383Z,68.93
2022-11-19T04:42:46.132Z,69.18
2022-11-19T04:47:48.930Z,69.35
2022-11-19T04:52:53.063Z,69.62
2022-11-19T04:57:55.812Z,69.73
2022-11-19T05:02:59.136Z,70.11
2022-11-19T05:08:03.233Z,70.17
2022-11-19T05:13:06.041Z,70.31
2022-11-19T05:18:08.823Z,70.51
2022-11-19T05:23:12.993Z,70.66
2022-11-19T05:28:15.793Z,70.85
2022-11-19T05:33:18.829Z,71.02
2022-11-19T05:38:22.941Z,70.99
2022-11-19T05:43:25.725Z,71.08
2022-11-19T05:48:28.537Z,71.14
2022-11-19T05:53:32.772Z,71.23
2022-11-19T05:58:35.516Z,71.27
2022-11-19T06:03:38.395Z,71.51
2022-11-19T06:08:42.548Z,71.42
2022-11-19T06:13:45.296Z,71.82
2022-11-19T06:18:48.074Z,71.88
2022-11-19T06:23:52.234Z,71.79
2022-11-19T06:28:55.563Z,71.91
2022-11-19T06:33:58.509Z,71.95
2022-11-19T06:39:02.874Z,72.19
2022-11-19T06:44:05.906Z,72.37
2022-11-19T06:49:12.251Z,72.37
2022-11-19T06:54:18.541Z,72.34
2022-11-19T06:59:21.846Z,72.49
2022-11-19T07:04:24.769Z,72.72
2022-11-19T07:09:28.975Z,72.38
2022-11-19T07:14:31.707Z,71.59
2022-11-19T07:19:34.527Z,71.45
2022-11-19T07:24:38.761Z,71.38
2022-11-19T07:29:41.511Z,71.23
2022-11-19T07:34:44.297Z,70.87
2022-11-19T07:39:48.377Z,70.82
2022-11-19T07:44:54.762Z,70.68
2022-11-19T07:49:57.968Z,70.60
2022-11-19T07:55:02.568Z,70.71
2022-11-19T08:00:07.125Z,70.84
2022-11-19T08:05:16.047Z,70.92
2022-11-19T08:10:20.328Z,70.71
2022-11-19T08:15:23.082Z,70.22
2022-11-19T08:20:25.814Z,69.43
2022-11-19T08:25:30.019Z,70.40
2022-11-19T08:30:33.564Z,70.63
2022-11-19T08:35:36.427Z,69.99
2022-11-19T08:40:40.707Z,70.43
2022-11-19T08:45:53.741Z,69.96
2022-11-19T08:50:56.512Z,69.76
2022-11-19T08:56:00.782Z,69.98
2022-11-19T09:01:10.271Z,70.03
2022-11-19T09:06:13.459Z,45.60
2022-11-19T09:11:20.004Z,48.03
2022-11-19T09:16:22.796Z,53.17
2022-11-19T09:21:25.568Z,53.68
2022-11-19T09:26:29.893Z,53.92
2022-11-19T09:31:32.707Z,55.11
2022-11-19T09:36:35.539Z,56.49
2022-11-19T09:41:49.589Z,57.06
2022-11-19T09:47:04.021Z,57.45
2022-11-19T09:52:11.007Z,57.77
2022-11-19T09:57:22.867Z,58.54
2022-11-19T10:02:25.773Z,58.87
2022-11-19T10:07:41.828Z,59.68
2022-11-19T10:13:11.820Z,59.87
2022-11-19T10:18:20.577Z,60.57
2022-11-19T10:23:31.258Z,61.26
2022-11-19T10:28:39.383Z,61.78
2022-11-19T10:33:51.440Z,61.70
2022-11-19T10:39:03.801Z,61.55
2022-11-19T10:44:37.551Z,61.52
2022-11-19T10:49:42.440Z,61.44
2022-11-19T10:54:46.756Z,61.59
2022-11-19T10:59:54.629Z,61.59
2022-11-19T11:05:02.576Z,61.64
2022-11-19T11:10:26.438Z,61.57
2022-11-19T11:15:30.677Z,61.71
2022-11-19T11:20:33.975Z,61.58
2022-11-19T11:25:39.296Z,61.72
2022-11-19T11:30:53.570Z,61.56
2022-11-19T11:35:58.606Z,61.57
2022-11-19T11:41:48.504Z,61.67
2022-11-19T11:46:41.636Z,61.67
2022-11-19T11:51:44.577Z,61.49
2022-11-19T11:56:48.432Z,61.50
2022-11-19T12:01:56.724Z,61.72
2022-11-19T12:07:14.020Z,61.74
2022-11-19T12:12:25.312Z,61.42
2022-11-19T12:17:40.605Z,61.39
2022-11-19T12:23:01.428Z,61.35
2022-11-19T12:28:18.571Z,61.10
2022-11-19T12:33:38.647Z,60.89
2022-11-19T12:38:48.819Z,60.78
2022-11-19T12:43:56.895Z,60.64
2022-11-19T12:49:21.469Z,60.81
2022-11-19T12:54:41.256Z,60.51
2022-11-19T13:00:02.302Z,60.40
2022-11-19T13:05:15.207Z,60.34
2022-11-19T13:10:22.286Z,60.24
2022-11-19T13:15:31.110Z,60.28
2022-11-19T13:20:45.286Z,60.38
2022-11-19T13:25:56.018Z,60.82
2022-11-19T13:31:05.632Z,60.72
2022-11-19T13:36:20.586Z,60.87
2022-11-19T13:41:27.986Z,60.83
2022-11-19T13:46:39.942Z,60.71
2022-11-19T13:51:48.743Z,61.00
2022-11-19T13:56:54.315Z,61.07
2022-11-19T14:02:10.460Z,56.91
2022-11-19T14:07:52.106Z,58.63
2022-11-19T14:13:12.869Z,59.73
2022-11-19T14:18:43.244Z,60.23
2022-11-19T14:24:06.169Z,60.62
2022-11-19T14:29:47.715Z,60.62
2022-11-19T14:35:29.221Z,60.77
2022-11-19T14:40:38.522Z,61.15
2022-11-19T14:46:24.533Z,61.04
2022-11-19T14:51:32.072Z,61.16
2022-11-19T14:56:38.726Z,61.35
2022-11-19T15:01:56.611Z,61.49
2022-11-19T15:07:01.599Z,61.85
2022-11-19T15:12:05.845Z,61.89
2022-11-19T15:17:11.211Z,62.02
2022-11-19T15:22:31.320Z,62.43
2022-11-19T15:27:56.381Z,62.42
2022-11-19T15:33:17.971Z,62.45
2022-11-19T15:38:31.038Z,62.27
2022-11-19T15:43:42.675Z,62.30
2022-11-19T15:48:55.883Z,61.92
2022-11-19T15:54:00.367Z,61.40
2022-11-19T15:59:06.395Z,60.80
2022-11-19T16:09:22.621Z,58.79
2022-11-19T16:14:46.259Z,58.28
2022-11-19T16:20:19.002Z,58.64
2022-11-19T16:25:29.068Z,58.47
2022-11-19T16:30:46.336Z,58.97
2022-11-19T16:35:52.928Z,58.45
2022-11-19T16:41:15.351Z,59.10
2022-11-19T16:46:23.321Z,59.14
2022-11-19T16:51:33.078Z,58.97
2022-11-19T16:56:41.494Z,58.78
2022-11-19T17:01:52.418Z,58.42
2022-11-19T17:06:56.063Z,58.07
2022-11-19T17:12:16.325Z,57.59
2022-11-19T17:17:40.789Z,57.19
2022-11-19T17:22:43.977Z,57.21
2022-11-19T17:27:51.951Z,57.22
2022-11-19T17:33:02.357Z,57.31
2022-11-19T17:38:10.700Z,57.46
2022-11-19T17:43:32.988Z,57.52
2022-11-19T17:48:40.597Z,57.51
2022-11-19T17:53:43.903Z,57.59
2022-11-19T17:58:47.056Z,57.58
2022-11-19T18:03:51.303Z,57.68
2022-11-19T18:08:54.263Z,57.65
2022-11-19T18:14:01.804Z,57.76
2022-11-19T18:19:11.749Z,57.70
2022-11-19T18:24:14.684Z,57.64
2022-11-19T18:29:17.426Z,57.69
2022-11-19T18:34:24.162Z,57.62
2022-11-19T18:39:27.028Z,57.66
2022-11-19T18:44:36.025Z,57.63
2022-11-19T18:49:40.869Z,57.55
2022-11-19T18:54:44.184Z,57.65
2022-11-19T18:59:47.042Z,57.58
2022-11-19T19:04:51.666Z,57.49
2022-11-19T19:09:54.409Z,57.57
2022-11-19T19:14:58.828Z,57.63
2022-11-19T19:20:03.574Z,57.91
2022-11-19T19:25:07.511Z,57.89
2022-11-19T19:30:11.648Z,57.58
2022-11-19T19:35:16.033Z,57.68
2022-11-19T19:40:19.018Z,57.62
2022-11-19T19:45:21.972Z,57.50
2022-11-19T19:50:26.099Z,57.52
2022-11-19T19:55:28.885Z,57.02
2022-11-19T20:00:31.725Z,56.61
2022-11-19T20:05:35.836Z,56.30
2022-11-19T20:10:38.572Z,56.24
2022-11-19T20:15:41.486Z,55.96
2022-11-19T20:20:45.876Z,55.76
2022-11-19T20:25:48.653Z,55.53
2022-11-19T20:30:51.614Z,55.27
2022-11-19T20:35:55.874Z,55.30
2022-11-19T20:41:00.517Z,55.02
2022-11-19T20:46:08.301Z,55.08
2022-11-19T20:51:13.276Z,55.42
2022-11-19T20:56:16.095Z,55.30
2022-11-19T21:01:18.864Z,55.45
2022-11-19T21:06:23.137Z,55.53
2022-11-19T21:11:26.351Z,55.60
2022-11-19T21:16:29.858Z,55.63
2022-11-19T21:21:34.599Z,55.70
2022-11-19T21:26:37.480Z,55.72
2022-11-19T21:31:41.980Z,55.84
2022-11-19T21:36:46.956Z,55.83
2022-11-19T21:41:49.936Z,55.92
2022-11-19T21:46:52.693Z,55.54
2022-11-19T21:51:56.827Z,55.80
2022-11-19T21:57:00.594Z,55.90
2022-11-19T22:02:03.366Z,56.25
2022-11-19T22:07:07.757Z,56.33
2022-11-19T22:12:10.563Z,56.39
2022-11-19T22:17:13.399Z,56.59
2022-11-19T22:22:17.533Z,56.59
2022-11-19T22:27:20.446Z,56.87
2022-11-19T22:32:23.516Z,56.84
2022-11-19T22:37:27.683Z,56.97
2022-11-19T22:42:30.780Z,56.99
2022-11-19T22:47:35.816Z,57.24
2022-11-19T22:52:39.991Z,57.32
2022-11-19T22:57:42.732Z,57.37
2022-11-19T23:02:45.460Z,57.54
2022-11-19T23:07:49.821Z,57.69
2022-11-19T23:13:09.489Z,57.79
2022-11-19T23:18:12.238Z,57.98
2022-11-19T23:23:16.379Z,58.20
2022-11-19T23:28:19.160Z,58.16
2022-11-19T23:33:22.737Z,58.44
2022-11-19T23:38:26.864Z,58.50
2022-11-19T23:43:30.466Z,58.70
2022-11-19T23:48:34.012Z,58.51
2022-11-19T23:53:38.374Z,58.70
2022-11-19T23:58:41.965Z,58.74
